createdAt,value
2022-10-14T00:01:22.752Z,100356.00
2022-10-14T00:03:51.820Z,100361.00
2022-10-14T00:06:21.966Z,100352.00
2022-10-14T00:08:50.679Z,100348.00
2022-10-14T00:11:22.763Z,100351.00
2022-10-14T00:13:52.297Z,100350.00
2022-10-14T00:16:22.767Z,100353.00
2022-10-14T00:18:51.654Z,100353.00
2022-10-14T00:21:20.862Z,100353.00
2022-10-14T00:23:49.374Z,100351.00
2022-10-14T00:26:22.449Z,100352.00
2022-10-14T00:28:51.509Z,100347.00
2022-10-14T00:31:20.539Z,100344.00
2022-10-14T00:33:49.341Z,100350.00
2022-10-14T00:36:20.396Z,100348.00
2022-10-14T00:38:49.537Z,100345.00
2022-10-14T00:41:22.391Z,100356.00
2022-10-14T00:44:02.094Z,100353.00
2022-10-14T00:46:32.180Z,100360.00
2022-10-14T00:49:06.712Z,100352.00
2022-10-14T00:51:35.964Z,100356.00
2022-10-14T00:54:04.929Z,100351.00
2022-10-14T00:56:38.316Z,100352.00
2022-10-14T00:59:07.726Z,100348.00
2022-10-14T01:01:36.231Z,100357.00
2022-10-14T01:04:04.824Z,100360.00
2022-10-14T01:06:42.510Z,100359.00
2022-10-14T01:09:20.407Z,100360.00
2022-10-14T01:12:26.898Z,100353.00
2022-10-14T01:14:59.759Z,100357.00
2022-10-14T01:17:37.744Z,100356.00
2022-10-14T01:20:43.789Z,100353.00
2022-10-14T01:23:32.754Z,100350.00
2022-10-14T01:26:12.094Z,100350.00
2022-10-14T01:28:53.181Z,100350.00
2022-10-14T01:31:27.096Z,100349.00
2022-10-14T01:34:00.033Z,100343.00
2022-10-14T01:36:34.941Z,100348.00
2022-10-14T01:39:11.414Z,100345.00
2022-10-14T01:41:44.362Z,100344.00
2022-10-14T01:44:17.051Z,100339.00
2022-10-14T01:46:51.735Z,100344.00
2022-10-14T01:49:26.241Z,100338.00
2022-10-14T01:52:00.446Z,100339.00
2022-10-14T01:54:34.156Z,100313.00
2022-10-14T01:57:06.406Z,100326.00
2022-10-14T01:59:37.142Z,100318.00
2022-10-14T02:02:07.158Z,100318.00
2022-10-14T02:04:35.721Z,100332.00
2022-10-14T02:07:08.829Z,100319.00
2022-10-14T02:09:44.821Z,100313.00
2022-10-14T02:12:26.347Z,100310.00
2022-10-14T02:15:03.926Z,100311.00
2022-10-14T02:17:37.918Z,100306.00
2022-10-14T02:20:14.254Z,100310.00
2022-10-14T02:22:46.237Z,100313.00
2022-10-14T02:25:20.030Z,100307.00
2022-10-14T02:27:50.462Z,100304.00
2022-10-14T02:30:20.302Z,100302.00
2022-10-14T02:32:52.303Z,100303.00
2022-10-14T02:35:23.346Z,100296.00
2022-10-14T02:37:54.752Z,100300.00
2022-10-14T02:40:28.202Z,100304.00
2022-10-14T02:42:56.695Z,100306.00
2022-10-14T02:45:27.408Z,100304.00
2022-10-14T02:47:57.286Z,100303.00
2022-10-14T02:50:25.797Z,100303.00
2022-10-14T02:52:54.272Z,100309.00
2022-10-14T02:55:22.818Z,100301.00
2022-10-14T02:57:51.324Z,100294.00
2022-10-14T03:00:20.085Z,100300.00
2022-10-14T03:02:48.865Z,100296.00
2022-10-14T03:05:19.607Z,100296.00
2022-10-14T03:07:48.119Z,100288.00
2022-10-14T03:10:16.830Z,100291.00
2022-10-14T03:12:45.459Z,100288.00
2022-10-14T03:15:14.125Z,100295.00
2022-10-14T03:17:42.740Z,100285.00
2022-10-14T03:20:12.360Z,100296.00
2022-10-14T03:22:42.546Z,100288.00
2022-10-14T03:25:11.697Z,100289.00
2022-10-14T03:27:40.393Z,100288.00
2022-10-14T03:30:11.325Z,100288.00
2022-10-14T03:32:39.893Z,100288.00
2022-10-14T03:35:09.545Z,100280.00
2022-10-14T03:37:38.330Z,100278.00
2022-10-14T03:40:09.588Z,100284.00
2022-10-14T03:42:38.109Z,100284.00
2022-10-14T03:45:08.440Z,100284.00
2022-10-14T03:47:37.032Z,100273.00
2022-10-14T03:50:06.329Z,100277.00
2022-10-14T03:52:34.877Z,100278.00
2022-10-14T03:55:03.721Z,100275.00
2022-10-14T03:57:33.734Z,100277.00
2022-10-14T04:00:02.302Z,100277.00
2022-10-14T04:02:30.869Z,100272.00
2022-10-14T04:05:01.040Z,100274.00
2022-10-14T04:07:29.908Z,100267.00
2022-10-14T04:09:58.501Z,100271.00
2022-10-14T04:12:27.118Z,100265.00
2022-10-14T04:14:57.478Z,100268.00
2022-10-14T04:17:26.294Z,100264.00
2022-10-14T04:19:55.673Z,100262.00
2022-10-14T04:22:24.407Z,100261.00
2022-10-14T04:24:53.151Z,100259.00
2022-10-14T04:27:21.722Z,100260.00
2022-10-14T04:29:50.932Z,100264.00
2022-10-14T04:32:21.335Z,100260.00
2022-10-14T04:34:50.237Z,100263.00
2022-10-14T04:37:18.896Z,100262.00
2022-10-14T04:39:47.514Z,100259.00
2022-10-14T04:42:16.094Z,100263.00
2022-10-14T04:44:44.718Z,100266.00
2022-10-14T04:47:13.313Z,100259.00
2022-10-14T04:49:43.228Z,100260.00
2022-10-14T04:52:11.845Z,100259.00
2022-10-14T04:54:40.395Z,100249.00
2022-10-14T04:57:10.076Z,100251.00
2022-10-14T04:59:38.614Z,100247.00
2022-10-14T05:02:07.292Z,100248.00
2022-10-14T05:04:35.858Z,100243.00
2022-10-14T05:07:05.793Z,100256.00
2022-10-14T05:09:34.382Z,100255.00
2022-10-14T05:12:02.934Z,100252.00
2022-10-14T05:14:31.491Z,100245.00
2022-10-14T05:17:00.046Z,100249.00
2022-10-14T05:19:28.615Z,100241.00
2022-10-14T05:21:57.188Z,100242.00
2022-10-14T05:24:27.156Z,100247.00
2022-10-14T05:26:55.787Z,100242.00
2022-10-14T05:29:24.422Z,100231.00
2022-10-14T05:31:52.959Z,100234.00
2022-10-14T05:34:21.537Z,100233.00
2022-10-14T05:36:50.138Z,100239.00
2022-10-14T05:39:18.885Z,100233.00
2022-10-14T05:41:48.778Z,100239.00
2022-10-14T05:44:17.323Z,100238.00
2022-10-14T05:46:47.012Z,100242.00
2022-10-14T05:49:17.423Z,100250.00
2022-10-14T05:51:45.999Z,100241.00
2022-10-14T05:54:14.788Z,100237.00
2022-10-14T05:56:43.334Z,100251.00
2022-10-14T05:59:14.055Z,100253.00
2022-10-14T06:01:43.314Z,100251.00
2022-10-14T06:04:18.935Z,100247.00
2022-10-14T06:06:47.870Z,100249.00
2022-10-14T06:09:16.723Z,100242.00
2022-10-14T06:11:45.671Z,100237.00
2022-10-14T06:14:15.705Z,100238.00
2022-10-14T06:16:44.280Z,100242.00
2022-10-14T06:19:13.003Z,100242.00
2022-10-14T06:21:41.680Z,100235.00
2022-10-14T06:24:10.626Z,100228.00
2022-10-14T06:26:39.577Z,100243.00
2022-10-14T06:29:08.460Z,100236.00
2022-10-14T06:31:38.413Z,100239.00
2022-10-14T06:34:07.837Z,100239.00
2022-10-14T06:36:37.924Z,100241.00
2022-10-14T06:39:06.557Z,100248.00
2022-10-14T06:41:35.075Z,100245.00
2022-10-14T06:44:03.617Z,100252.00
2022-10-14T06:46:32.195Z,100251.00
2022-10-14T06:49:02.171Z,100258.00
2022-10-14T06:51:30.828Z,100258.00
2022-10-14T06:53:59.354Z,100260.00
2022-10-14T06:56:28.008Z,100255.00
2022-10-14T06:58:56.978Z,100249.00
2022-10-14T07:01:25.913Z,100262.00
2022-10-14T07:03:56.674Z,100261.00
2022-10-14T07:06:27.239Z,100259.00
2022-10-14T07:08:55.812Z,100263.00
2022-10-14T07:11:24.433Z,100259.00
2022-10-14T07:13:52.913Z,100267.00
2022-10-14T07:16:21.403Z,100258.00
2022-10-14T07:18:50.439Z,100262.00
2022-10-14T07:21:18.984Z,100268.00
2022-10-14T07:23:48.913Z,100265.00
2022-10-14T07:26:17.615Z,100268.00
2022-10-14T07:28:46.140Z,100261.00
2022-10-14T07:31:15.076Z,100266.00
2022-10-14T07:33:43.620Z,100268.00
2022-10-14T07:36:17.206Z,100267.00
2022-10-14T07:38:49.966Z,100263.00
2022-10-14T07:41:21.613Z,100276.00
2022-10-14T07:43:52.413Z,100276.00
2022-10-14T07:46:29.327Z,100285.00
2022-10-14T07:48:58.625Z,100282.00
2022-10-14T07:54:19.028Z,100274.00
2022-10-14T07:56:49.223Z,100282.00
2022-10-14T07:59:18.017Z,100285.00
2022-10-14T08:01:48.856Z,100282.00
2022-10-14T08:04:17.795Z,100281.00
2022-10-14T08:06:48.071Z,100270.00
2022-10-14T08:09:18.903Z,100277.00
2022-10-14T08:11:47.640Z,100280.00
2022-10-14T08:14:16.947Z,100276.00
2022-10-14T08:16:45.492Z,100277.00
2022-10-14T08:19:14.987Z,100279.00
2022-10-14T08:21:44.213Z,100280.00
2022-10-14T08:24:12.784Z,100282.00
2022-10-14T08:26:50.319Z,100289.00
2022-10-14T08:29:18.960Z,100282.00
2022-10-14T08:31:47.527Z,100285.00
2022-10-14T08:34:16.198Z,100274.00
2022-10-14T08:36:44.707Z,100278.00
2022-10-14T08:39:13.255Z,100279.00
2022-10-14T08:42:03.699Z,100273.00
2022-10-14T08:44:42.017Z,100278.00
2022-10-14T08:47:14.313Z,100270.00
2022-10-14T08:49:54.005Z,100275.00
2022-10-14T08:52:26.997Z,100273.00
2022-10-14T08:55:00.130Z,100275.00
2022-10-14T08:57:34.498Z,100270.00
2022-10-14T09:00:03.190Z,100274.00
2022-10-14T09:02:40.281Z,100269.00
2022-10-14T09:05:14.692Z,100273.00
2022-10-14T09:07:43.834Z,100266.00
2022-10-14T09:10:22.328Z,100272.00
2022-10-14T09:12:54.243Z,100262.00
2022-10-14T09:15:28.983Z,100255.00
2022-10-14T09:18:06.718Z,100262.00
2022-10-14T09:20:35.337Z,100266.00
2022-10-14T09:23:15.890Z,100265.00
2022-10-14T09:25:52.536Z,100262.00
2022-10-14T09:28:23.784Z,100259.00
2022-10-14T09:30:52.638Z,100254.00
2022-10-14T09:33:22.604Z,100259.00
2022-10-14T09:35:51.153Z,100253.00
2022-10-14T09:38:20.907Z,100254.00
2022-10-14T09:40:53.234Z,100257.00
2022-10-14T09:43:24.956Z,100242.00
2022-10-14T09:45:57.790Z,100239.00
2022-10-14T09:48:34.304Z,100247.00
2022-10-14T09:51:05.644Z,100259.00
2022-10-14T09:53:37.867Z,100246.00
2022-10-14T09:56:08.473Z,100244.00
2022-10-14T09:58:43.788Z,100239.00
2022-10-14T10:01:19.078Z,100238.00
2022-10-14T10:03:49.688Z,100237.00
2022-10-14T10:06:21.483Z,100238.00
2022-10-14T10:09:00.162Z,100231.00
2022-10-14T10:11:30.991Z,100237.00
2022-10-14T10:14:16.181Z,100240.00
2022-10-14T10:16:44.802Z,100229.00
2022-10-14T10:19:33.731Z,100226.00
2022-10-14T10:24:48.732Z,100222.00
2022-10-14T10:27:22.754Z,100222.00
2022-10-14T10:29:55.853Z,100216.00
2022-10-14T10:32:30.862Z,100229.00
2022-10-14T10:35:17.853Z,100228.00
2022-10-14T10:38:00.586Z,100222.00
2022-10-14T10:40:35.316Z,100218.00
2022-10-14T10:43:40.234Z,100219.00
2022-10-14T10:46:20.787Z,100212.00
2022-10-14T10:48:56.582Z,100213.00
2022-10-14T10:51:31.873Z,100215.00
2022-10-14T10:54:08.591Z,100219.00
2022-10-14T10:56:43.757Z,100210.00
2022-10-14T10:59:33.585Z,100210.00
2022-10-14T11:02:38.216Z,100221.00
2022-10-14T11:05:13.286Z,100207.00
2022-10-14T11:08:10.963Z,100205.00
2022-10-14T11:11:05.360Z,100204.00
2022-10-14T11:13:43.228Z,100203.00
2022-10-14T11:16:16.836Z,100205.00
2022-10-14T11:18:50.405Z,100209.00
2022-10-14T11:21:30.764Z,100193.00
2022-10-14T11:24:05.936Z,100203.00
2022-10-14T11:27:01.702Z,100200.00
2022-10-14T11:30:02.608Z,100195.00
2022-10-14T11:32:41.658Z,100190.00
2022-10-14T11:35:25.193Z,100193.00
2022-10-14T11:38:06.503Z,100188.00
2022-10-14T11:40:40.607Z,100180.00
2022-10-14T11:43:20.464Z,100175.00
2022-10-14T11:45:55.159Z,100179.00
2022-10-14T11:48:29.020Z,100176.00
2022-10-14T11:51:03.763Z,100174.00
2022-10-14T11:53:48.307Z,100171.00
2022-10-14T11:56:29.246Z,100160.00
2022-10-14T11:59:32.087Z,100169.00
2022-10-14T12:02:09.320Z,100165.00
2022-10-14T12:04:40.485Z,100161.00
2022-10-14T12:07:17.891Z,100158.00
2022-10-14T12:09:55.869Z,100157.00
2022-10-14T12:12:30.372Z,100157.00
2022-10-14T12:15:02.560Z,100152.00
2022-10-14T12:17:35.293Z,100153.00
2022-10-14T12:20:15.510Z,100150.00
2022-10-14T12:22:47.917Z,100154.00
2022-10-14T12:25:21.533Z,100155.00
2022-10-14T12:27:52.234Z,100137.00
2022-10-14T12:30:36.858Z,100140.00
2022-10-14T12:33:12.874Z,100137.00
2022-10-14T12:36:02.436Z,100142.00
2022-10-14T12:38:35.798Z,100143.00
2022-10-14T12:41:36.147Z,100140.00
2022-10-14T12:44:06.320Z,100143.00
2022-10-14T12:46:44.913Z,100139.00
2022-10-14T12:49:19.943Z,100125.00
2022-10-14T12:51:57.521Z,100126.00
2022-10-14T12:54:28.834Z,100118.00
2022-10-14T12:56:59.893Z,100119.00
2022-10-14T12:59:31.767Z,100131.00
2022-10-14T13:02:04.449Z,100115.00
2022-10-14T13:04:35.245Z,100112.00
2022-10-14T13:07:47.351Z,100113.00
2022-10-14T13:10:47.232Z,100106.00
2022-10-14T13:13:53.496Z,100113.00
2022-10-14T13:16:56.122Z,100108.00
2022-10-14T13:19:47.672Z,100105.00
2022-10-14T13:22:35.911Z,100100.00
2022-10-14T13:25:15.541Z,100092.00
2022-10-14T13:27:59.929Z,100097.00
2022-10-14T13:30:40.547Z,100090.00
2022-10-14T13:33:19.619Z,100089.00
2022-10-14T13:36:01.200Z,100088.00
2022-10-14T13:38:31.010Z,100088.00
2022-10-14T13:41:00.381Z,100087.00
2022-10-14T13:43:42.438Z,100082.00
2022-10-14T13:46:17.226Z,100080.00
2022-10-14T13:48:47.558Z,100082.00
2022-10-14T13:51:44.124Z,100077.00
2022-10-14T13:54:19.765Z,100070.00
2022-10-14T13:57:38.325Z,100075.00
2022-10-14T14:00:37.882Z,100070.00
2022-10-14T14:02:40.823Z,100065.00
2022-10-14T14:05:17.238Z,100074.00
2022-10-14T14:10:42.586Z,100059.00
2022-10-14T14:13:15.398Z,100056.00
2022-10-14T14:15:51.013Z,100057.00
2022-10-14T14:18:38.046Z,100056.00
2022-10-14T14:21:17.236Z,100049.00
2022-10-14T14:23:56.780Z,100043.00
2022-10-14T14:26:30.531Z,100050.00
2022-10-14T14:28:59.129Z,100048.00
2022-10-14T14:31:48.022Z,100042.00
2022-10-14T14:34:20.121Z,100035.00
2022-10-14T14:36:55.181Z,100037.00
2022-10-14T14:39:28.477Z,100039.00
2022-10-14T14:41:58.971Z,100033.00
2022-10-14T14:44:29.875Z,100018.00
2022-10-14T14:47:02.937Z,100023.00
2022-10-14T14:49:33.988Z,100015.00
2022-10-14T14:52:03.443Z,100017.00
2022-10-14T14:54:32.128Z,100010.00
2022-10-14T14:57:05.847Z,100006.00
2022-10-14T14:59:37.433Z,100009.00
2022-10-14T15:02:15.419Z,100005.00
2022-10-14T15:04:44.082Z,100009.00
2022-10-14T15:07:21.086Z,100004.00
2022-10-14T15:09:54.774Z,99999.00
2022-10-14T15:12:25.792Z,100005.00
2022-10-14T15:14:56.584Z,99995.00
2022-10-14T15:17:32.270Z,99999.00
2022-10-14T15:20:02.433Z,100001.00
2022-10-14T15:22:36.387Z,100000.00
2022-10-14T15:25:10.712Z,100004.00
2022-10-14T15:27:50.502Z,100007.00
2022-10-14T15:30:34.992Z,100004.00
2022-10-14T15:33:16.272Z,100002.00
2022-10-14T15:35:46.631Z,99997.00
2022-10-14T15:38:17.344Z,99996.00
2022-10-14T15:40:46.692Z,100002.00
2022-10-14T15:43:17.792Z,100005.00
2022-10-14T15:46:08.976Z,100005.00
2022-10-14T15:48:39.256Z,100003.00
2022-10-14T15:51:12.029Z,100003.00
2022-10-14T15:53:40.529Z,100007.00
2022-10-14T15:56:10.288Z,100009.00
2022-10-14T15:58:48.185Z,100005.00
2022-10-14T16:01:20.415Z,99996.00
2022-10-14T16:03:52.342Z,99997.00
2022-10-14T16:06:22.737Z,99990.00
2022-10-14T16:08:51.431Z,99994.00
2022-10-14T16:11:23.581Z,99985.00
2022-10-14T16:13:53.918Z,99974.00
2022-10-14T16:16:26.599Z,99976.00
2022-10-14T16:18:56.865Z,99981.00
2022-10-14T16:21:25.514Z,99973.00
2022-10-14T16:23:54.559Z,99968.00
2022-10-14T16:26:23.308Z,99979.00
2022-10-14T16:28:52.468Z,99972.00
2022-10-14T16:31:29.978Z,99956.00
2022-10-14T16:33:59.942Z,99959.00
2022-10-14T16:36:29.567Z,99952.00
2022-10-14T16:38:58.165Z,99950.00
2022-10-14T16:41:26.679Z,99947.00
2022-10-14T16:44:00.287Z,99942.00
2022-10-14T16:46:42.650Z,99943.00
2022-10-14T16:49:12.804Z,99943.00
2022-10-14T16:51:42.341Z,99937.00
2022-10-14T16:54:11.207Z,99953.00
2022-10-14T16:56:55.029Z,99949.00
2022-10-14T16:59:24.459Z,99947.00
2022-10-14T17:01:53.580Z,99944.00
2022-10-14T17:04:24.031Z,99949.00
2022-10-14T17:06:52.923Z,99944.00
2022-10-14T17:09:21.950Z,99946.00
2022-10-14T17:11:50.908Z,99953.00
2022-10-14T17:14:24.273Z,99957.00
2022-10-14T17:16:53.400Z,99957.00
2022-10-14T17:19:23.924Z,99961.00
2022-10-14T17:21:52.446Z,99960.00
2022-10-14T17:24:21.109Z,99966.00
2022-10-14T17:26:49.868Z,99962.00
2022-10-14T17:29:18.567Z,99959.00
2022-10-14T17:31:47.255Z,99962.00
2022-10-14T17:34:15.816Z,99961.00
2022-10-14T17:36:45.821Z,99961.00
2022-10-14T17:39:21.306Z,99962.00
2022-10-14T17:41:56.082Z,99968.00
2022-10-14T17:44:24.673Z,99962.00
2022-10-14T17:46:53.378Z,99959.00
2022-10-14T17:49:21.971Z,99961.00
2022-10-14T17:51:51.871Z,99963.00
2022-10-14T17:54:20.541Z,99954.00
2022-10-14T17:56:49.087Z,99957.00
2022-10-14T17:59:17.610Z,99956.00
2022-10-14T18:02:03.704Z,99964.00
2022-10-14T18:04:33.541Z,99959.00
2022-10-14T18:07:03.582Z,99954.00
2022-10-14T18:09:33.857Z,99959.00
2022-10-14T18:12:10.368Z,99968.00
2022-10-14T18:14:40.762Z,99962.00
2022-10-14T18:17:12.832Z,99954.00
2022-10-14T18:19:42.139Z,99952.00
2022-10-14T18:22:12.195Z,99956.00
2022-10-14T18:24:40.762Z,99947.00
2022-10-14T18:27:09.301Z,99944.00
2022-10-14T18:29:38.086Z,99942.00
2022-10-14T18:32:07.383Z,99934.00
2022-10-14T18:34:36.097Z,99927.00
2022-10-14T18:37:04.693Z,99932.00
2022-10-14T18:39:34.644Z,99929.00
2022-10-14T18:42:07.777Z,99928.00
2022-10-14T18:44:36.266Z,99923.00
2022-10-14T18:47:04.872Z,99921.00
2022-10-14T18:49:38.165Z,99920.00
2022-10-14T18:52:09.588Z,99926.00
2022-10-14T18:54:39.671Z,99923.00
2022-10-14T18:57:09.508Z,99922.00
2022-10-14T18:59:38.024Z,99920.00
2022-10-14T19:02:07.218Z,99920.00
2022-10-14T19:04:36.447Z,99925.00
2022-10-14T19:07:05.390Z,99917.00
2022-10-14T19:09:34.339Z,99914.00
2022-10-14T19:12:24.938Z,99911.00
2022-10-14T19:14:54.119Z,99918.00
2022-10-14T19:17:22.778Z,99914.00
2022-10-14T19:19:51.336Z,99911.00
2022-10-14T19:22:20.287Z,99909.00
2022-10-14T19:24:49.104Z,99908.00
2022-10-14T19:27:19.133Z,99899.00
2022-10-14T19:29:47.784Z,99896.00
2022-10-14T19:32:16.440Z,99882.00
2022-10-14T19:34:47.503Z,99888.00
2022-10-14T19:37:16.190Z,99877.00
2022-10-14T19:39:44.922Z,99872.00
2022-10-14T19:42:13.463Z,99865.00
2022-10-14T19:44:43.511Z,99867.00
2022-10-14T19:47:12.111Z,99861.00
2022-10-14T19:49:40.689Z,99858.00
2022-10-14T19:52:09.287Z,99861.00
2022-10-14T19:54:37.967Z,99853.00
2022-10-14T19:57:06.619Z,99846.00
2022-10-14T19:59:35.255Z,99844.00
2022-10-14T20:02:05.219Z,99849.00
2022-10-14T20:04:33.905Z,99850.00
2022-10-14T20:07:02.417Z,99830.00
2022-10-14T20:09:31.070Z,99837.00
2022-10-14T20:11:59.704Z,99841.00
2022-10-14T20:14:29.784Z,99840.00
2022-10-14T20:16:58.319Z,99838.00
2022-10-14T20:19:28.250Z,99838.00
2022-10-14T20:21:56.922Z,99825.00
2022-10-14T20:24:25.513Z,99834.00
2022-10-14T20:26:54.023Z,99829.00
2022-10-14T20:29:22.710Z,99826.00
2022-10-14T20:31:51.295Z,99823.00
2022-10-14T20:34:19.850Z,99811.00
2022-10-14T20:36:49.761Z,99817.00
2022-10-14T20:39:18.310Z,99809.00
2022-10-14T20:41:46.892Z,99819.00
2022-10-14T20:44:16.739Z,99812.00
2022-10-14T20:46:47.698Z,99806.00
2022-10-14T20:49:16.844Z,99809.00
2022-10-14T20:51:45.409Z,99804.00
2022-10-14T20:54:15.356Z,99802.00
2022-10-14T20:56:43.772Z,99807.00
2022-10-14T20:59:14.862Z,99804.00
2022-10-14T21:01:43.457Z,99812.00
2022-10-14T21:04:12.992Z,99811.00
2022-10-14T21:06:41.451Z,99803.00
2022-10-14T21:09:10.757Z,99802.00
2022-10-14T21:11:41.473Z,99803.00
2022-10-14T21:14:10.138Z,99799.00
2022-10-14T21:16:39.840Z,99790.00
2022-10-14T21:19:09.851Z,99787.00
2022-10-14T21:21:40.373Z,99780.00
2022-10-14T21:24:09.608Z,99775.00
2022-10-14T21:26:39.479Z,99765.00
2022-10-14T21:29:08.003Z,99757.00
2022-10-14T21:31:36.702Z,99763.00
2022-10-14T21:34:06.675Z,99758.00
2022-10-14T21:36:35.780Z,99761.00
2022-10-14T21:39:07.738Z,99749.00
2022-10-14T21:41:36.572Z,99754.00
2022-10-14T21:44:07.044Z,99756.00
2022-10-14T21:46:36.165Z,99754.00
2022-10-14T21:49:04.741Z,99748.00
2022-10-14T21:51:33.988Z,99736.00
2022-10-14T21:54:02.535Z,99740.00
2022-10-14T21:56:31.136Z,99747.00
2022-10-14T21:58:59.943Z,99740.00
2022-10-14T22:01:31.466Z,99729.00
2022-10-14T22:04:01.285Z,99735.00
2022-10-14T22:06:29.898Z,99732.00
2022-10-14T22:09:00.251Z,99726.00
2022-10-14T22:11:30.948Z,99728.00
2022-10-14T22:14:01.345Z,99722.00
2022-10-14T22:16:31.468Z,99714.00
2022-10-14T22:19:01.415Z,99716.00
2022-10-14T22:21:32.202Z,99721.00
2022-10-14T22:24:00.874Z,99705.00
2022-10-14T22:26:30.732Z,99708.00
2022-10-14T22:29:00.275Z,99693.00
2022-10-14T22:31:32.875Z,99696.00
2022-10-14T22:34:02.342Z,99695.00
2022-10-14T22:36:32.231Z,99692.00
2022-10-14T22:39:02.330Z,99687.00
2022-10-14T22:41:35.277Z,99682.00
2022-10-14T22:44:05.140Z,99695.00
2022-10-14T22:46:37.295Z,99687.00
2022-10-14T22:49:06.247Z,99684.00
2022-10-14T22:51:36.444Z,99678.00
2022-10-14T22:54:05.681Z,99679.00
2022-10-14T22:56:34.594Z,99676.00
2022-10-14T22:59:05.227Z,99673.00
2022-10-14T23:01:35.995Z,99670.00
2022-10-14T23:04:05.223Z,99679.00
2022-10-14T23:06:33.728Z,99675.00
2022-10-14T23:09:02.559Z,99671.00
2022-10-14T23:11:32.212Z,99670.00
2022-10-14T23:14:03.022Z,99665.00
2022-10-14T23:16:37.362Z,99664.00
2022-10-14T23:19:05.869Z,99674.00
2022-10-14T23:21:35.843Z,99661.00
2022-10-14T23:24:06.390Z,99662.00
2022-10-14T23:26:36.389Z,99648.00
2022-10-14T23:29:07.287Z,99652.00
2022-10-14T23:31:38.624Z,99650.00
2022-10-14T23:34:08.862Z,99655.00
2022-10-14T23:36:38.253Z,99656.00
2022-10-14T23:39:06.966Z,99659.00
2022-10-14T23:41:35.510Z,99647.00
2022-10-14T23:44:04.064Z,99648.00
2022-10-14T23:46:32.517Z,99649.00
2022-10-14T23:49:07.493Z,99646.00
2022-10-14T23:51:42.706Z,99642.00
2022-10-14T23:54:11.203Z,99650.00
2022-10-14T23:56:39.854Z,99654.00
2022-10-14T23:59:08.358Z,99646.00
